This is the latest recevied weather packets stored in our database for station/object KI6AOK. If no packets are shown the sender has not sent any weather packets the latest 10 day(s).
| Time | Temp. | Humidity | Pressure | Rain* | Wind** | Luminosity | Snow |
|---|---|---|---|---|---|---|---|
| 1777757731 | 23.33° C | 61% | 1012.1 hPa | 0 mm | - | 745 W/m² | - |
| 1777757430 | 23.33° C | 60% | 1012.2 hPa | 0 mm | - | 750 W/m² | - |
| 1777757128 | 23.33° C | 60% | 1012.3 hPa | 0 mm | - | 755 W/m² | - |
| 1777756826 | 23.33° C | 60% | 1012.1 hPa | 0 mm | - | 753 W/m² | - |
| 1777756521 | 23.33° C | 61% | 1012.3 hPa | 0 mm | - | 714 W/m² | - |
| 1777756218 | 23.33° C | 61% | 1012.1 hPa | 0 mm | - | 736 W/m² | - |
| 1777755915 | 23.33° C | 60% | 1012.1 hPa | 0 mm | - | 744 W/m² | - |
| 1777755612 | 23.89° C | 60% | 1012.2 hPa | 0 mm | - | 790 W/m² | - |
| 1777755308 | 23.89° C | 60% | 1012 hPa | 0 mm | - | 846 W/m² | - |
| 1777755006 | 24.44° C | 57% | 1012.1 hPa | 0 mm | - | 567 W/m² | - |
| 1777754703 | 24.44° C | 58% | 1012.3 hPa | 0 mm | - | 720 W/m² | - |
| 1777754401 | 25° C | 56% | 1012.2 hPa | 0 mm | - | 739 W/m² | - |
| 1777754097 | 24.44° C | 58% | 1012.2 hPa | 0 mm | - | 790 W/m² | - |
| 1777753794 | 25° C | 56% | 1012.2 hPa | 0 mm | - | 778 W/m² | - |
| 1777753490 | 24.44° C | 58% | 1012.2 hPa | 0 mm | - | 693 W/m² | - |
| 1777753189 | 23.89° C | 57% | 1012.2 hPa | 0 mm | - | 681 W/m² | - |
| 1777752884 | 23.89° C | 59% | 1012.3 hPa | 0 mm | - | 900 W/m² | - |
| 1777752581 | 23.89° C | 58% | 1012.4 hPa | 0 mm | - | 887 W/m² | - |
| 1777752277 | 23.89° C | 58% | 1012.7 hPa | 0 mm | - | 636 W/m² | - |
| 1777751975 | 24.44° C | 57% | 1012.8 hPa | 0 mm | - | 765 W/m² | - |
| 1777751672 | 25° C | 56% | 1012.6 hPa | 0 mm | - | 741 W/m² | - |
| 1777751368 | 24.44° C | 54% | 1012.7 hPa | 0 mm | - | 659 W/m² | - |
| 1777751065 | 24.44° C | 54% | 1012.6 hPa | 0 mm | - | 705 W/m² | - |
| 1777750761 | 23.89° C | 55% | 1012.6 hPa | 0 mm | - | 693 W/m² | - |
| 1777750458 | 23.89° C | 55% | 1012.9 hPa | 0 mm | - | 916 W/m² | - |
* Rain latest hour (hover to see other rain measurements)
** Current wind speed in m/s (hover to see current wind gust speed)